sensor_id;sensor_type;location;lat;lon;timestamp;temperature;humidity
48579;DHT22;34357;51.948;6.132;2023-12-20T00:01:38;6.10;94.10
48579;DHT22;34357;51.948;6.132;2023-12-20T00:04:04;6.10;94.10
48579;DHT22;34357;51.948;6.132;2023-12-20T00:06:30;6.10;94.10
48579;DHT22;34357;51.948;6.132;2023-12-20T00:08:56;6.00;94.10
48579;DHT22;34357;51.948;6.132;2023-12-20T00:11:24;6.00;94.10
48579;DHT22;34357;51.948;6.132;2023-12-20T00:13:50;5.90;94.10
48579;DHT22;34357;51.948;6.132;2023-12-20T00:16:16;5.90;94.10
48579;DHT22;34357;51.948;6.132;2023-12-20T00:18:42;5.90;94.20
48579;DHT22;34357;51.948;6.132;2023-12-20T00:21:07;5.90;94.20
48579;DHT22;34357;51.948;6.132;2023-12-20T00:23:34;5.90;94.20
48579;DHT22;34357;51.948;6.132;2023-12-20T00:26:00;5.90;94.30
48579;DHT22;34357;51.948;6.132;2023-12-20T00:28:26;5.80;94.30
48579;DHT22;34357;51.948;6.132;2023-12-20T00:30:51;5.90;94.40
48579;DHT22;34357;51.948;6.132;2023-12-20T00:33:18;5.90;94.30
48579;DHT22;34357;51.948;6.132;2023-12-20T00:35:45;5.90;94.30
48579;DHT22;34357;51.948;6.132;2023-12-20T00:38:10;5.90;94.40
48579;DHT22;34357;51.948;6.132;2023-12-20T00:40:37;5.90;94.40
48579;DHT22;34357;51.948;6.132;2023-12-20T00:43:03;5.90;94.40
48579;DHT22;34357;51.948;6.132;2023-12-20T00:45:29;5.90;94.50
48579;DHT22;34357;51.948;6.132;2023-12-20T00:47:54;6.00;94.50
48579;DHT22;34357;51.948;6.132;2023-12-20T00:50:20;5.90;94.40
48579;DHT22;34357;51.948;6.132;2023-12-20T00:52:47;5.90;94.40
48579;DHT22;34357;51.948;6.132;2023-12-20T00:55:13;5.90;94.30
48579;DHT22;34357;51.948;6.132;2023-12-20T00:57:39;5.90;94.30
48579;DHT22;34357;51.948;6.132;2023-12-20T01:00:06;5.90;94.30
48579;DHT22;34357;51.948;6.132;2023-12-20T01:02:32;5.80;94.30
48579;DHT22;34357;51.948;6.132;2023-12-20T01:04:57;5.90;94.30
48579;DHT22;34357;51.948;6.132;2023-12-20T01:07:23;5.80;94.20
48579;DHT22;34357;51.948;6.132;2023-12-20T01:09:49;5.70;94.20
48579;DHT22;34357;51.948;6.132;2023-12-20T01:12:14;5.70;94.20
48579;DHT22;34357;51.948;6.132;2023-12-20T01:14:40;5.70;94.20
48579;DHT22;34357;51.948;6.132;2023-12-20T01:17:06;5.80;94.20
48579;DHT22;34357;51.948;6.132;2023-12-20T01:19:32;5.70;94.20
48579;DHT22;34357;51.948;6.132;2023-12-20T01:21:57;5.70;94.10
48579;DHT22;34357;51.948;6.132;2023-12-20T01:24:23;5.70;94.00
48579;DHT22;34357;51.948;6.132;2023-12-20T01:26:49;5.60;94.00
48579;DHT22;34357;51.948;6.132;2023-12-20T01:29:15;5.70;94.00
48579;DHT22;34357;51.948;6.132;2023-12-20T01:31:41;5.60;94.00
48579;DHT22;34357;51.948;6.132;2023-12-20T01:34:07;5.60;94.00
48579;DHT22;34357;51.948;6.132;2023-12-20T01:36:33;5.60;94.00
48579;DHT22;34357;51.948;6.132;2023-12-20T01:38:58;5.50;94.00
48579;DHT22;34357;51.948;6.132;2023-12-20T01:41:24;5.60;94.00
48579;DHT22;34357;51.948;6.132;2023-12-20T01:43:50;5.60;94.00
48579;DHT22;34357;51.948;6.132;2023-12-20T01:46:16;5.60;94.00
48579;DHT22;34357;51.948;6.132;2023-12-20T01:48:42;5.60;93.90
48579;DHT22;34357;51.948;6.132;2023-12-20T01:51:09;5.60;93.90
48579;DHT22;34357;51.948;6.132;2023-12-20T01:53:35;5.60;93.90
48579;DHT22;34357;51.948;6.132;2023-12-20T01:56:01;5.60;93.90
48579;DHT22;34357;51.948;6.132;2023-12-20T01:58:27;5.60;93.90
48579;DHT22;34357;51.948;6.132;2023-12-20T02:00:54;5.60;93.90
48579;DHT22;34357;51.948;6.132;2023-12-20T02:03:20;5.60;93.90
48579;DHT22;34357;51.948;6.132;2023-12-20T02:05:47;5.60;93.90
48579;DHT22;34357;51.948;6.132;2023-12-20T02:08:13;5.60;93.80
48579;DHT22;34357;51.948;6.132;2023-12-20T02:10:39;5.60;93.90
48579;DHT22;34357;51.948;6.132;2023-12-20T02:13:06;5.70;93.70
48579;DHT22;34357;51.948;6.132;2023-12-20T02:15:32;5.60;93.60
48579;DHT22;34357;51.948;6.132;2023-12-20T02:17:57;5.60;93.60
48579;DHT22;34357;51.948;6.132;2023-12-20T02:20:23;5.60;93.60
48579;DHT22;34357;51.948;6.132;2023-12-20T02:22:49;5.70;93.60
48579;DHT22;34357;51.948;6.132;2023-12-20T02:25:15;5.80;93.50
48579;DHT22;34357;51.948;6.132;2023-12-20T02:27:40;5.70;93.40
48579;DHT22;34357;51.948;6.132;2023-12-20T02:30:06;5.70;93.30
48579;DHT22;34357;51.948;6.132;2023-12-20T02:32:33;5.70;93.30
48579;DHT22;34357;51.948;6.132;2023-12-20T02:34:58;5.60;93.30
48579;DHT22;34357;51.948;6.132;2023-12-20T02:37:24;5.60;93.30
48579;DHT22;34357;51.948;6.132;2023-12-20T02:39:50;5.50;93.30
48579;DHT22;34357;51.948;6.132;2023-12-20T02:42:16;5.60;93.40
48579;DHT22;34357;51.948;6.132;2023-12-20T02:44:41;5.50;93.40
48579;DHT22;34357;51.948;6.132;2023-12-20T02:47:07;5.50;93.50
48579;DHT22;34357;51.948;6.132;2023-12-20T02:49:33;5.50;93.60
48579;DHT22;34357;51.948;6.132;2023-12-20T02:51:58;5.50;93.50
48579;DHT22;34357;51.948;6.132;2023-12-20T02:54:24;5.50;93.60
48579;DHT22;34357;51.948;6.132;2023-12-20T02:56:50;5.50;93.60
48579;DHT22;34357;51.948;6.132;2023-12-20T02:59:15;5.60;93.60
48579;DHT22;34357;51.948;6.132;2023-12-20T03:01:45;5.60;93.60
48579;DHT22;34357;51.948;6.132;2023-12-20T03:04:11;5.50;93.60
48579;DHT22;34357;51.948;6.132;2023-12-20T03:06:37;5.60;93.60
48579;DHT22;34357;51.948;6.132;2023-12-20T03:09:03;5.60;93.70
48579;DHT22;34357;51.948;6.132;2023-12-20T03:11:29;5.70;93.70
48579;DHT22;34357;51.948;6.132;2023-12-20T03:13:56;5.70;93.70
48579;DHT22;34357;51.948;6.132;2023-12-20T03:16:21;5.70;93.60
48579;DHT22;34357;51.948;6.132;2023-12-20T03:18:47;5.80;93.60
48579;DHT22;34357;51.948;6.132;2023-12-20T03:21:13;5.80;93.50
48579;DHT22;34357;51.948;6.132;2023-12-20T03:23:39;5.80;93.50
48579;DHT22;34357;51.948;6.132;2023-12-20T03:26:08;5.90;93.30
48579;DHT22;34357;51.948;6.132;2023-12-20T03:28:34;5.90;93.20
48579;DHT22;34357;51.948;6.132;2023-12-20T03:31:01;5.80;93.20
48579;DHT22;34357;51.948;6.132;2023-12-20T03:33:28;5.80;93.10
48579;DHT22;34357;51.948;6.132;2023-12-20T03:35:54;5.80;93.10
48579;DHT22;34357;51.948;6.132;2023-12-20T03:38:20;5.80;93.10
48579;DHT22;34357;51.948;6.132;2023-12-20T03:40:46;5.80;93.10
48579;DHT22;34357;51.948;6.132;2023-12-20T03:43:12;5.80;93.00
48579;DHT22;34357;51.948;6.132;2023-12-20T03:45:37;5.70;93.00
48579;DHT22;34357;51.948;6.132;2023-12-20T03:48:04;5.70;93.00
48579;DHT22;34357;51.948;6.132;2023-12-20T03:50:30;5.70;93.00
48579;DHT22;34357;51.948;6.132;2023-12-20T03:52:55;5.70;93.00
48579;DHT22;34357;51.948;6.132;2023-12-20T03:55:21;5.70;93.00
48579;DHT22;34357;51.948;6.132;2023-12-20T03:57:47;5.70;93.10
48579;DHT22;34357;51.948;6.132;2023-12-20T04:00:13;5.60;93.10
48579;DHT22;34357;51.948;6.132;2023-12-20T04:02:40;5.60;93.20
48579;DHT22;34357;51.948;6.132;2023-12-20T04:05:06;5.60;93.20
48579;DHT22;34357;51.948;6.132;2023-12-20T04:07:32;5.60;93.20
48579;DHT22;34357;51.948;6.132;2023-12-20T04:09:58;5.60;93.20
48579;DHT22;34357;51.948;6.132;2023-12-20T04:12:24;5.60;93.30
48579;DHT22;34357;51.948;6.132;2023-12-20T04:14:50;5.60;93.40
48579;DHT22;34357;51.948;6.132;2023-12-20T04:17:16;5.70;93.30
48579;DHT22;34357;51.948;6.132;2023-12-20T04:19:42;5.70;93.20
48579;DHT22;34357;51.948;6.132;2023-12-20T04:22:08;5.70;93.20
48579;DHT22;34357;51.948;6.132;2023-12-20T04:24:34;5.80;93.20
48579;DHT22;34357;51.948;6.132;2023-12-20T04:27:00;5.80;93.10
48579;DHT22;34357;51.948;6.132;2023-12-20T04:29:26;5.90;93.00
48579;DHT22;34357;51.948;6.132;2023-12-20T04:31:51;5.90;92.90
48579;DHT22;34357;51.948;6.132;2023-12-20T04:34:18;6.00;92.80
48579;DHT22;34357;51.948;6.132;2023-12-20T04:36:44;6.00;92.70
48579;DHT22;34357;51.948;6.132;2023-12-20T04:39:11;6.00;92.60
48579;DHT22;34357;51.948;6.132;2023-12-20T04:41:37;5.90;92.50
48579;DHT22;34357;51.948;6.132;2023-12-20T04:44:03;5.90;92.60
48579;DHT22;34357;51.948;6.132;2023-12-20T04:46:28;5.90;92.50
48579;DHT22;34357;51.948;6.132;2023-12-20T04:48:54;5.90;92.70
48579;DHT22;34357;51.948;6.132;2023-12-20T04:51:21;5.90;92.70
48579;DHT22;34357;51.948;6.132;2023-12-20T04:53:47;5.90;92.70
48579;DHT22;34357;51.948;6.132;2023-12-20T04:56:13;5.90;92.70
48579;DHT22;34357;51.948;6.132;2023-12-20T04:58:38;5.90;92.80
48579;DHT22;34357;51.948;6.132;2023-12-20T05:01:08;5.90;92.70
48579;DHT22;34357;51.948;6.132;2023-12-20T05:03:34;5.90;92.80
48579;DHT22;34357;51.948;6.132;2023-12-20T05:06:00;5.90;92.90
48579;DHT22;34357;51.948;6.132;2023-12-20T05:08:26;5.90;92.70
48579;DHT22;34357;51.948;6.132;2023-12-20T05:10:54;6.00;92.60
48579;DHT22;34357;51.948;6.132;2023-12-20T05:13:20;6.00;92.50
48579;DHT22;34357;51.948;6.132;2023-12-20T05:15:45;6.00;92.50
48579;DHT22;34357;51.948;6.132;2023-12-20T05:18:12;6.10;92.50
48579;DHT22;34357;51.948;6.132;2023-12-20T05:20:38;6.10;92.60
48579;DHT22;34357;51.948;6.132;2023-12-20T05:23:04;6.10;92.60
48579;DHT22;34357;51.948;6.132;2023-12-20T05:25:30;6.10;92.70
48579;DHT22;34357;51.948;6.132;2023-12-20T05:27:56;6.10;92.60
48579;DHT22;34357;51.948;6.132;2023-12-20T05:30:22;6.10;92.60
48579;DHT22;34357;51.948;6.132;2023-12-20T05:32:47;6.00;92.60
48579;DHT22;34357;51.948;6.132;2023-12-20T05:35:13;6.10;92.60
48579;DHT22;34357;51.948;6.132;2023-12-20T05:37:39;6.10;92.70
48579;DHT22;34357;51.948;6.132;2023-12-20T05:40:05;6.10;92.70
48579;DHT22;34357;51.948;6.132;2023-12-20T05:42:31;6.10;92.70
48579;DHT22;34357;51.948;6.132;2023-12-20T05:44:57;6.20;92.70
48579;DHT22;34357;51.948;6.132;2023-12-20T05:47:23;6.20;92.70
48579;DHT22;34357;51.948;6.132;2023-12-20T05:49:48;6.20;92.70
48579;DHT22;34357;51.948;6.132;2023-12-20T05:52:15;6.20;92.70
48579;DHT22;34357;51.948;6.132;2023-12-20T05:54:41;6.20;92.60
48579;DHT22;34357;51.948;6.132;2023-12-20T05:57:07;6.30;92.70
48579;DHT22;34357;51.948;6.132;2023-12-20T05:59:32;6.30;92.60
48579;DHT22;34357;51.948;6.132;2023-12-20T06:01:58;6.40;92.60
48579;DHT22;34357;51.948;6.132;2023-12-20T06:04:24;6.30;92.50
48579;DHT22;34357;51.948;6.132;2023-12-20T06:06:49;6.40;92.20
48579;DHT22;34357;51.948;6.132;2023-12-20T06:09:15;6.40;92.10
48579;DHT22;34357;51.948;6.132;2023-12-20T06:11:41;6.40;92.00
48579;DHT22;34357;51.948;6.132;2023-12-20T06:14:06;6.50;91.90
48579;DHT22;34357;51.948;6.132;2023-12-20T06:16:32;6.50;91.80
48579;DHT22;34357;51.948;6.132;2023-12-20T06:18:58;6.50;91.60
48579;DHT22;34357;51.948;6.132;2023-12-20T06:21:23;6.60;91.30
48579;DHT22;34357;51.948;6.132;2023-12-20T06:23:49;6.60;91.10
48579;DHT22;34357;51.948;6.132;2023-12-20T06:26:15;6.70;91.00
48579;DHT22;34357;51.948;6.132;2023-12-20T06:28:41;6.70;90.80
48579;DHT22;34357;51.948;6.132;2023-12-20T06:31:08;6.60;91.00
48579;DHT22;34357;51.948;6.132;2023-12-20T06:33:34;6.70;91.00
48579;DHT22;34357;51.948;6.132;2023-12-20T06:36:00;6.70;90.70
48579;DHT22;34357;51.948;6.132;2023-12-20T06:38:26;6.80;90.10
48579;DHT22;34357;51.948;6.132;2023-12-20T06:40:52;6.80;90.00
48579;DHT22;34357;51.948;6.132;2023-12-20T06:43:17;6.80;90.10
48579;DHT22;34357;51.948;6.132;2023-12-20T06:45:43;6.80;90.20
48579;DHT22;34357;51.948;6.132;2023-12-20T06:48:09;6.80;90.20
48579;DHT22;34357;51.948;6.132;2023-12-20T06:50:37;6.70;90.10
48579;DHT22;34357;51.948;6.132;2023-12-20T06:53:06;6.80;90.30
48579;DHT22;34357;51.948;6.132;2023-12-20T06:55:34;6.80;90.30
48579;DHT22;34357;51.948;6.132;2023-12-20T06:58:01;6.70;90.40
48579;DHT22;34357;51.948;6.132;2023-12-20T07:00:27;6.80;90.50
48579;DHT22;34357;51.948;6.132;2023-12-20T07:02:53;6.70;90.60
48579;DHT22;34357;51.948;6.132;2023-12-20T07:05:19;6.80;90.60
48579;DHT22;34357;51.948;6.132;2023-12-20T07:07:46;6.70;90.70
48579;DHT22;34357;51.948;6.132;2023-12-20T07:10:13;6.70;90.90
48579;DHT22;34357;51.948;6.132;2023-12-20T07:12:38;6.70;91.00
48579;DHT22;34357;51.948;6.132;2023-12-20T07:15:04;6.60;91.10
48579;DHT22;34357;51.948;6.132;2023-12-20T07:17:33;6.70;91.10
48579;DHT22;34357;51.948;6.132;2023-12-20T07:19:59;6.60;91.20
48579;DHT22;34357;51.948;6.132;2023-12-20T07:22:29;6.60;91.30
48579;DHT22;34357;51.948;6.132;2023-12-20T07:24:57;6.60;91.40
48579;DHT22;34357;51.948;6.132;2023-12-20T07:27:23;6.60;91.20
48579;DHT22;34357;51.948;6.132;2023-12-20T07:29:49;6.60;91.30
48579;DHT22;34357;51.948;6.132;2023-12-20T07:32:15;6.70;91.20
48579;DHT22;34357;51.948;6.132;2023-12-20T07:34:41;6.70;91.00
48579;DHT22;34357;51.948;6.132;2023-12-20T07:37:06;6.70;91.10
48579;DHT22;34357;51.948;6.132;2023-12-20T07:39:32;6.70;91.10
48579;DHT22;34357;51.948;6.132;2023-12-20T07:41:58;6.60;91.10
48579;DHT22;34357;51.948;6.132;2023-12-20T07:44:23;6.60;91.20
48579;DHT22;34357;51.948;6.132;2023-12-20T07:46:49;6.60;91.10
48579;DHT22;34357;51.948;6.132;2023-12-20T07:49:15;6.70;91.00
48579;DHT22;34357;51.948;6.132;2023-12-20T07:51:41;6.70;90.80
48579;DHT22;34357;51.948;6.132;2023-12-20T07:54:06;6.70;91.10
48579;DHT22;34357;51.948;6.132;2023-12-20T07:56:33;6.70;90.90
48579;DHT22;34357;51.948;6.132;2023-12-20T07:58:59;6.70;90.60
48579;DHT22;34357;51.948;6.132;2023-12-20T08:01:25;6.80;90.60
48579;DHT22;34357;51.948;6.132;2023-12-20T08:03:50;6.70;90.70
48579;DHT22;34357;51.948;6.132;2023-12-20T08:06:16;6.70;90.70
48579;DHT22;34357;51.948;6.132;2023-12-20T08:08:43;6.80;90.60
48579;DHT22;34357;51.948;6.132;2023-12-20T08:11:08;6.80;90.70
48579;DHT22;34357;51.948;6.132;2023-12-20T08:13:34;6.80;90.60
48579;DHT22;34357;51.948;6.132;2023-12-20T08:16:00;6.80;90.60
48579;DHT22;34357;51.948;6.132;2023-12-20T08:18:28;6.80;90.70
48579;DHT22;34357;51.948;6.132;2023-12-20T08:20:53;6.80;90.60
48579;DHT22;34357;51.948;6.132;2023-12-20T08:23:19;6.80;90.70
48579;DHT22;34357;51.948;6.132;2023-12-20T08:25:46;6.90;90.70
48579;DHT22;34357;51.948;6.132;2023-12-20T08:28:12;6.90;90.50
48579;DHT22;34357;51.948;6.132;2023-12-20T08:30:38;6.90;90.40
48579;DHT22;34357;51.948;6.132;2023-12-20T08:33:04;6.90;90.70
48579;DHT22;34357;51.948;6.132;2023-12-20T08:35:30;6.90;90.20
48579;DHT22;34357;51.948;6.132;2023-12-20T08:37:56;6.90;90.20
48579;DHT22;34357;51.948;6.132;2023-12-20T08:40:22;6.90;90.20
48579;DHT22;34357;51.948;6.132;2023-12-20T08:42:47;7.00;90.30
48579;DHT22;34357;51.948;6.132;2023-12-20T08:45:13;6.90;90.30
48579;DHT22;34357;51.948;6.132;2023-12-20T08:47:39;7.00;90.10
48579;DHT22;34357;51.948;6.132;2023-12-20T08:50:07;7.00;90.00
48579;DHT22;34357;51.948;6.132;2023-12-20T08:52:32;7.00;89.90
48579;DHT22;34357;51.948;6.132;2023-12-20T08:54:58;7.00;89.90
48579;DHT22;34357;51.948;6.132;2023-12-20T08:57:24;7.00;90.00
48579;DHT22;34357;51.948;6.132;2023-12-20T08:59:50;7.00;90.30
48579;DHT22;34357;51.948;6.132;2023-12-20T09:02:17;7.00;90.10
48579;DHT22;34357;51.948;6.132;2023-12-20T09:04:43;7.00;90.10
48579;DHT22;34357;51.948;6.132;2023-12-20T09:07:34;7.00;90.40
48579;DHT22;34357;51.948;6.132;2023-12-20T09:10:00;6.90;90.80
48579;DHT22;34357;51.948;6.132;2023-12-20T09:12:26;6.90;91.10
48579;DHT22;34357;51.948;6.132;2023-12-20T09:14:53;6.80;91.20
48579;DHT22;34357;51.948;6.132;2023-12-20T09:17:19;6.80;91.40
48579;DHT22;34357;51.948;6.132;2023-12-20T09:19:46;6.80;91.60
48579;DHT22;34357;51.948;6.132;2023-12-20T09:22:12;6.70;91.90
48579;DHT22;34357;51.948;6.132;2023-12-20T09:24:38;6.70;92.10
48579;DHT22;34357;51.948;6.132;2023-12-20T09:27:05;6.70;92.30
48579;DHT22;34357;51.948;6.132;2023-12-20T09:29:31;6.60;92.40
48579;DHT22;34357;51.948;6.132;2023-12-20T09:31:57;6.60;92.60
48579;DHT22;34357;51.948;6.132;2023-12-20T09:34:23;6.60;92.70
48579;DHT22;34357;51.948;6.132;2023-12-20T09:36:49;6.70;92.90
48579;DHT22;34357;51.948;6.132;2023-12-20T09:39:16;6.60;92.90
48579;DHT22;34357;51.948;6.132;2023-12-20T09:42:05;6.60;93.10
48579;DHT22;34357;51.948;6.132;2023-12-20T09:44:32;6.60;93.10
48579;DHT22;34357;51.948;6.132;2023-12-20T09:47:02;6.60;93.30
48579;DHT22;34357;51.948;6.132;2023-12-20T09:49:29;6.60;93.40
48579;DHT22;34357;51.948;6.132;2023-12-20T09:51:56;6.60;93.50
48579;DHT22;34357;51.948;6.132;2023-12-20T09:54:23;6.60;93.50
48579;DHT22;34357;51.948;6.132;2023-12-20T09:56:49;6.60;93.70
48579;DHT22;34357;51.948;6.132;2023-12-20T09:59:15;6.60;93.70
48579;DHT22;34357;51.948;6.132;2023-12-20T10:01:42;6.60;93.80
48579;DHT22;34357;51.948;6.132;2023-12-20T10:04:09;6.60;93.90
48579;DHT22;34357;51.948;6.132;2023-12-20T10:06:43;6.60;94.00
48579;DHT22;34357;51.948;6.132;2023-12-20T10:09:10;6.60;94.00
48579;DHT22;34357;51.948;6.132;2023-12-20T10:11:38;6.60;93.90
48579;DHT22;34357;51.948;6.132;2023-12-20T10:14:05;6.60;93.90
48579;DHT22;34357;51.948;6.132;2023-12-20T10:16:31;6.70;94.00
48579;DHT22;34357;51.948;6.132;2023-12-20T10:18:58;6.60;93.90
48579;DHT22;34357;51.948;6.132;2023-12-20T10:21:24;6.70;93.90
48579;DHT22;34357;51.948;6.132;2023-12-20T10:23:53;6.70;93.80
48579;DHT22;34357;51.948;6.132;2023-12-20T10:26:20;6.70;93.70
48579;DHT22;34357;51.948;6.132;2023-12-20T10:28:49;6.70;93.70
48579;DHT22;34357;51.948;6.132;2023-12-20T10:31:34;6.80;93.80
48579;DHT22;34357;51.948;6.132;2023-12-20T10:34:03;6.80;93.70
48579;DHT22;34357;51.948;6.132;2023-12-20T10:36:31;6.80;93.50
48579;DHT22;34357;51.948;6.132;2023-12-20T10:38:57;6.80;93.40
48579;DHT22;34357;51.948;6.132;2023-12-20T10:41:28;6.80;93.40
48579;DHT22;34357;51.948;6.132;2023-12-20T10:44:02;6.80;93.40
48579;DHT22;34357;51.948;6.132;2023-12-20T10:46:29;6.80;93.30
48579;DHT22;34357;51.948;6.132;2023-12-20T10:48:56;6.90;93.30
48579;DHT22;34357;51.948;6.132;2023-12-20T10:51:23;6.90;93.30
48579;DHT22;34357;51.948;6.132;2023-12-20T10:53:52;6.90;93.30
48579;DHT22;34357;51.948;6.132;2023-12-20T10:56:18;6.90;93.20
48579;DHT22;34357;51.948;6.132;2023-12-20T10:58:45;6.90;93.20
48579;DHT22;34357;51.948;6.132;2023-12-20T11:01:18;6.90;93.20
48579;DHT22;34357;51.948;6.132;2023-12-20T11:03:51;6.90;93.20
48579;DHT22;34357;51.948;6.132;2023-12-20T11:06:37;6.90;93.20
48579;DHT22;34357;51.948;6.132;2023-12-20T11:09:35;6.90;93.30
48579;DHT22;34357;51.948;6.132;2023-12-20T11:14:51;6.90;93.30
48579;DHT22;34357;51.948;6.132;2023-12-20T11:17:17;7.00;93.40
48579;DHT22;34357;51.948;6.132;2023-12-20T11:22:20;7.10;93.30
48579;DHT22;34357;51.948;6.132;2023-12-20T11:24:47;7.10;93.20
48579;DHT22;34357;51.948;6.132;2023-12-20T11:27:13;7.10;93.20
48579;DHT22;34357;51.948;6.132;2023-12-20T11:29:39;7.20;93.10
48579;DHT22;34357;51.948;6.132;2023-12-20T11:34:51;7.20;93.10
48579;DHT22;34357;51.948;6.132;2023-12-20T11:37:19;7.20;93.00
48579;DHT22;34357;51.948;6.132;2023-12-20T11:39:45;7.20;93.00
48579;DHT22;34357;51.948;6.132;2023-12-20T11:42:11;7.20;92.90
48579;DHT22;34357;51.948;6.132;2023-12-20T11:44:37;7.20;92.90
48579;DHT22;34357;51.948;6.132;2023-12-20T11:47:03;7.30;92.80
48579;DHT22;34357;51.948;6.132;2023-12-20T11:49:30;7.40;92.80
48579;DHT22;34357;51.948;6.132;2023-12-20T11:51:56;7.40;92.60
48579;DHT22;34357;51.948;6.132;2023-12-20T11:54:22;7.50;92.40
48579;DHT22;34357;51.948;6.132;2023-12-20T11:56:48;7.60;92.30
48579;DHT22;34357;51.948;6.132;2023-12-20T11:59:14;7.60;92.50
48579;DHT22;34357;51.948;6.132;2023-12-20T12:01:47;7.60;92.30
48579;DHT22;34357;51.948;6.132;2023-12-20T12:04:13;7.60;92.30
48579;DHT22;34357;51.948;6.132;2023-12-20T12:06:40;7.60;92.20
48579;DHT22;34357;51.948;6.132;2023-12-20T12:09:06;7.60;92.30
48579;DHT22;34357;51.948;6.132;2023-12-20T12:11:33;7.60;92.10
48579;DHT22;34357;51.948;6.132;2023-12-20T12:13:59;7.60;92.10
48579;DHT22;34357;51.948;6.132;2023-12-20T12:16:25;7.70;92.00
48579;DHT22;34357;51.948;6.132;2023-12-20T12:18:58;7.70;92.00
48579;DHT22;34357;51.948;6.132;2023-12-20T12:21:24;7.60;92.00
48579;DHT22;34357;51.948;6.132;2023-12-20T12:23:50;7.80;92.00
48579;DHT22;34357;51.948;6.132;2023-12-20T12:26:16;7.70;91.90
48579;DHT22;34357;51.948;6.132;2023-12-20T12:28:42;7.70;91.80
48579;DHT22;34357;51.948;6.132;2023-12-20T12:31:13;7.80;91.70
48579;DHT22;34357;51.948;6.132;2023-12-20T12:33:42;7.80;91.80
48579;DHT22;34357;51.948;6.132;2023-12-20T12:36:10;7.80;91.70
48579;DHT22;34357;51.948;6.132;2023-12-20T12:38:37;7.80;91.60
48579;DHT22;34357;51.948;6.132;2023-12-20T12:41:04;7.80;91.80
48579;DHT22;34357;51.948;6.132;2023-12-20T12:43:31;7.80;92.00
48579;DHT22;34357;51.948;6.132;2023-12-20T12:45:56;7.90;91.90
48579;DHT22;34357;51.948;6.132;2023-12-20T12:48:22;7.90;91.70
48579;DHT22;34357;51.948;6.132;2023-12-20T12:50:48;7.90;91.60
48579;DHT22;34357;51.948;6.132;2023-12-20T12:53:14;7.90;91.70
48579;DHT22;34357;51.948;6.132;2023-12-20T12:55:39;8.00;91.50
48579;DHT22;34357;51.948;6.132;2023-12-20T12:58:05;7.90;91.60
48579;DHT22;34357;51.948;6.132;2023-12-20T13:00:31;7.90;91.60
48579;DHT22;34357;51.948;6.132;2023-12-20T13:02:56;7.90;91.60
48579;DHT22;34357;51.948;6.132;2023-12-20T13:05:22;7.80;91.70
48579;DHT22;34357;51.948;6.132;2023-12-20T13:07:48;7.80;92.00
48579;DHT22;34357;51.948;6.132;2023-12-20T13:10:14;7.80;92.20
48579;DHT22;34357;51.948;6.132;2023-12-20T13:12:42;7.80;92.50
48579;DHT22;34357;51.948;6.132;2023-12-20T13:15:08;7.80;92.60
48579;DHT22;34357;51.948;6.132;2023-12-20T13:17:34;7.80;92.60
48579;DHT22;34357;51.948;6.132;2023-12-20T13:20:00;7.80;92.60
48579;DHT22;34357;51.948;6.132;2023-12-20T13:22:26;7.80;92.50
48579;DHT22;34357;51.948;6.132;2023-12-20T13:24:51;7.80;92.40
48579;DHT22;34357;51.948;6.132;2023-12-20T13:27:17;7.90;92.50
48579;DHT22;34357;51.948;6.132;2023-12-20T13:29:43;7.90;92.40
48579;DHT22;34357;51.948;6.132;2023-12-20T13:32:09;7.90;92.30
48579;DHT22;34357;51.948;6.132;2023-12-20T13:34:34;7.90;92.20
48579;DHT22;34357;51.948;6.132;2023-12-20T13:37:01;7.90;92.20
48579;DHT22;34357;51.948;6.132;2023-12-20T13:39:26;7.90;92.30
48579;DHT22;34357;51.948;6.132;2023-12-20T13:41:52;7.90;92.40
48579;DHT22;34357;51.948;6.132;2023-12-20T13:44:19;7.90;92.50
48579;DHT22;34357;51.948;6.132;2023-12-20T13:46:44;7.90;92.50
48579;DHT22;34357;51.948;6.132;2023-12-20T13:49:11;7.90;92.40
48579;DHT22;34357;51.948;6.132;2023-12-20T13:51:38;7.90;92.50
48579;DHT22;34357;51.948;6.132;2023-12-20T13:54:04;7.90;92.50
48579;DHT22;34357;51.948;6.132;2023-12-20T13:56:29;7.90;92.40
48579;DHT22;34357;51.948;6.132;2023-12-20T13:58:55;8.00;92.40
48579;DHT22;34357;51.948;6.132;2023-12-20T14:01:23;8.00;92.40
48579;DHT22;34357;51.948;6.132;2023-12-20T14:03:48;8.00;92.30
48579;DHT22;34357;51.948;6.132;2023-12-20T14:06:14;8.00;92.20
48579;DHT22;34357;51.948;6.132;2023-12-20T14:08:40;8.00;92.10
48579;DHT22;34357;51.948;6.132;2023-12-20T14:11:07;8.00;92.20
48579;DHT22;34357;51.948;6.132;2023-12-20T14:13:32;8.00;92.20
48579;DHT22;34357;51.948;6.132;2023-12-20T14:15:58;8.10;92.10
48579;DHT22;34357;51.948;6.132;2023-12-20T14:18:25;8.00;92.10
48579;DHT22;34357;51.948;6.132;2023-12-20T14:20:51;8.00;92.20
48579;DHT22;34357;51.948;6.132;2023-12-20T14:23:17;8.00;92.10
48579;DHT22;34357;51.948;6.132;2023-12-20T14:25:43;8.10;92.10
48579;DHT22;34357;51.948;6.132;2023-12-20T14:28:08;8.00;91.80
48579;DHT22;34357;51.948;6.132;2023-12-20T14:30:35;8.10;91.90
48579;DHT22;34357;51.948;6.132;2023-12-20T14:33:04;8.10;91.70
48579;DHT22;34357;51.948;6.132;2023-12-20T14:35:30;8.10;91.60
48579;DHT22;34357;51.948;6.132;2023-12-20T14:37:55;8.10;91.50
48579;DHT22;34357;51.948;6.132;2023-12-20T14:40:21;8.10;91.30
48579;DHT22;34357;51.948;6.132;2023-12-20T14:42:47;8.20;91.40
48579;DHT22;34357;51.948;6.132;2023-12-20T14:45:14;8.20;91.40
48579;DHT22;34357;51.948;6.132;2023-12-20T14:47:40;8.20;91.50
48579;DHT22;34357;51.948;6.132;2023-12-20T14:50:06;8.20;91.40
48579;DHT22;34357;51.948;6.132;2023-12-20T14:52:35;8.20;91.30
48579;DHT22;34357;51.948;6.132;2023-12-20T14:55:02;8.20;91.30
48579;DHT22;34357;51.948;6.132;2023-12-20T14:57:28;8.20;90.70
48579;DHT22;34357;51.948;6.132;2023-12-20T14:59:56;8.20;90.40
48579;DHT22;34357;51.948;6.132;2023-12-20T15:02:22;8.20;90.20
48579;DHT22;34357;51.948;6.132;2023-12-20T15:04:47;8.20;90.30
48579;DHT22;34357;51.948;6.132;2023-12-20T15:07:13;8.20;90.20
48579;DHT22;34357;51.948;6.132;2023-12-20T15:09:39;8.20;90.40
48579;DHT22;34357;51.948;6.132;2023-12-20T15:12:05;8.20;90.40
48579;DHT22;34357;51.948;6.132;2023-12-20T15:14:30;8.20;90.40
48579;DHT22;34357;51.948;6.132;2023-12-20T15:16:56;8.20;90.20
48579;DHT22;34357;51.948;6.132;2023-12-20T15:19:22;8.20;90.30
48579;DHT22;34357;51.948;6.132;2023-12-20T15:21:48;8.20;90.40
48579;DHT22;34357;51.948;6.132;2023-12-20T15:24:16;8.20;90.50
48579;DHT22;34357;51.948;6.132;2023-12-20T15:26:44;8.20;90.60
48579;DHT22;34357;51.948;6.132;2023-12-20T15:29:11;8.20;90.80
48579;DHT22;34357;51.948;6.132;2023-12-20T15:31:47;8.20;90.90
48579;DHT22;34357;51.948;6.132;2023-12-20T15:34:14;8.20;91.00
48579;DHT22;34357;51.948;6.132;2023-12-20T15:36:40;8.20;91.10
48579;DHT22;34357;51.948;6.132;2023-12-20T15:39:06;8.20;91.20
48579;DHT22;34357;51.948;6.132;2023-12-20T15:41:34;8.20;91.30
48579;DHT22;34357;51.948;6.132;2023-12-20T15:44:00;8.10;91.20
48579;DHT22;34357;51.948;6.132;2023-12-20T15:46:25;8.20;91.30
48579;DHT22;34357;51.948;6.132;2023-12-20T15:48:51;8.20;90.90